Cleveland, OH (44106)

6:03 AM EST on January 23, 2017 (GMT -0500)
Cleveland East Side | | Change Station
Active Advisory: Small Craft Advisory

Elev 0 ft 41.51 °N, 81.64 °W | Updated 22 seconds ago

Rain
Rain
39.7 °F
Feels Like 40 °F
N
0.0
Wind Variable Wind from West

Today
High -- | Low -- °F
--% Chance of Precip.
Yesterday
High -- | Low -- °F
Precip. -- in
Pressure 29.58 in
Visibility 2.0 miles
Clouds Overcast 300 ft
Windchill 40 °F
Dew Point 38 °F
Humidity 95%
Rainfall 0.13 in
Snow Depth Not available.
7:45 AM 5:31 PM
Waning Crescent, 19% visible
METAR KBKL 231053Z AUTO 04014KT 2SM -RA BR OVC003 03/02 A2956 RMK AO2 SLP015 P0007 T00280022
Pressure 29.58 in
Visibility 2.0 miles
Clouds Overcast 300 ft
Windchill 40 °F
Dew Point 38 °F
Humidity 95%
Rainfall 0.13 in
Snow Depth Not available.
7:45 AM 5:31 PM
Waning Crescent, 19% visible
METAR KBKL 231053Z AUTO 04014KT 2SM -RA BR OVC003 03/02 A2956 RMK AO2 SLP015 P0007 T00280022

Get Your Daily Forecast Email!

Thanks for signing up!

Be on the lookout for a verification email in your inbox.

You'll start receiving the daily forecast at 8 AM.

×

10-Day Weather Forecast

Almanac

Astronomy

Jan. 23, 2017 Rise Set
Actual Time
Civil Twilight
Nautical Twilight
Astronomical Twilight
Moon
Length of Visible Light
Length of Day
Tomorrow will be .
, % of the Moon is Illuminated

Today's Extremes

State Highs State Lows

Community

WunderPhotos

Upload Photos

1,962,540 photos uploaded!

WunderBlog® & News

Nearby

Air Quality

  Air Quality AQ Index Pollutant
Not available.

Snow Depth

Station Depth Elevation

Earthquake Activity

City Distance Mag. Time & Date
Minimum magnitude displayed is 2.5.

Coastal Water Temperatures

Place Temperature

Stations

Nearby Weather Stations

Station Location Temp. Windchill Dew Point Humidity Wind Precip. Elev Updated Type
                   

Watches & Warnings

Small Craft Advisory
Issued: 4:05 AM EST Jan. 23, 2017 – National Weather Service

... Small Craft Advisory remains in effect until 4 am EST
Tuesday...

* winds... northeast 10 to 20 knots.

* Waves... 3 to 5 feet.

Precautionary/preparedness actions...

A Small Craft Advisory is issued when waves of 4 feet or more are
expected or wind speeds reach 21 to 33 knots which may produce
hazardous conditions to small craft. Inexperienced mariners...
especially those operating smaller vessels... should stay in port
during these conditions.



Lombardy